createdAt,value
2022-08-19T00:01:32.865Z,100202.78
2022-08-19T00:04:09.910Z,100197.75
2022-08-19T00:06:39.750Z,100195.69
2022-08-19T00:09:09.962Z,100207.13
2022-08-19T00:11:39.129Z,100207.16
2022-08-19T00:14:09.641Z,100206.66
2022-08-19T00:16:42.331Z,100207.44
2022-08-19T00:19:11.591Z,100205.78
2022-08-19T00:21:40.729Z,100210.25
2022-08-19T00:24:10.238Z,100206.16
2022-08-19T00:26:39.631Z,100204.69
2022-08-19T00:29:09.183Z,100207.72
2022-08-19T00:31:38.969Z,100202.97
2022-08-19T00:34:07.021Z,100199.69
2022-08-19T00:36:35.368Z,100201.91
2022-08-19T00:39:03.626Z,100196.13
2022-08-19T00:41:32.214Z,100195.06
2022-08-19T00:44:02.832Z,100191.47
2022-08-19T00:46:32.502Z,100200.56
2022-08-19T00:49:03.354Z,100200.56
2022-08-19T00:51:34.358Z,100167.25
2022-08-19T00:54:03.878Z,100197.59
2022-08-19T00:56:33.134Z,100200.00
2022-08-19T00:59:03.210Z,100189.47
2022-08-19T01:01:31.315Z,100194.25
2022-08-19T01:03:59.503Z,100199.94
2022-08-19T01:06:29.029Z,100176.00
2022-08-19T01:08:57.555Z,100193.81
2022-08-19T01:11:25.649Z,100189.03
2022-08-19T01:13:55.136Z,100198.38
2022-08-19T01:16:27.585Z,100188.31
2022-08-19T01:18:55.931Z,100195.19
2022-08-19T01:21:33.420Z,100193.44
2022-08-19T01:24:03.522Z,100199.06
2022-08-19T01:26:32.042Z,100192.47
2022-08-19T01:29:02.253Z,100198.59
2022-08-19T01:31:33.551Z,100197.78
2022-08-19T01:34:04.053Z,100201.06
2022-08-19T01:36:34.807Z,100198.25
2022-08-19T01:39:07.489Z,100189.63
2022-08-19T01:41:35.838Z,100200.94
2022-08-19T01:44:18.159Z,100205.16
2022-08-19T01:46:49.336Z,100209.53
2022-08-19T01:49:19.809Z,100207.44
2022-08-19T01:51:48.544Z,100205.06
2022-08-19T01:54:27.007Z,100214.94
2022-08-19T01:57:02.087Z,100223.94
2022-08-19T01:59:30.834Z,100223.84
2022-08-19T02:01:59.073Z,100224.19
2022-08-19T02:04:27.307Z,100223.72
2022-08-19T02:06:55.344Z,100233.50
2022-08-19T02:09:24.750Z,100236.97
2022-08-19T02:11:52.813Z,100232.56
2022-08-19T02:14:20.940Z,100223.69
2022-08-19T02:16:49.054Z,100220.09
2022-08-19T02:19:17.145Z,100231.06
2022-08-19T02:21:45.805Z,100225.78
2022-08-19T02:24:14.861Z,100229.81
2022-08-19T02:26:44.267Z,100235.28
2022-08-19T02:29:12.540Z,100238.41
2022-08-19T02:31:40.577Z,100237.94
2022-08-19T02:34:08.627Z,100239.75
2022-08-19T02:36:36.729Z,100237.94
2022-08-19T02:39:10.057Z,100234.97
2022-08-19T02:41:38.542Z,100244.75
2022-08-19T02:44:30.284Z,100234.25
2022-08-19T02:46:56.533Z,100252.25
2022-08-19T02:49:24.688Z,100251.06
2022-08-19T02:51:52.723Z,100248.78
2022-08-19T02:54:20.939Z,100255.09
2022-08-19T02:56:48.907Z,100252.13
2022-08-19T02:59:18.287Z,100250.47
2022-08-19T03:01:50.985Z,100245.72
2022-08-19T03:04:20.858Z,100252.44
2022-08-19T03:06:49.631Z,100249.16
2022-08-19T03:09:18.893Z,100248.16
2022-08-19T03:11:46.937Z,100252.44
2022-08-19T03:14:19.135Z,100251.47
2022-08-19T03:16:49.560Z,100258.41
2022-08-19T03:19:20.265Z,100248.81
2022-08-19T03:21:48.485Z,100247.34
2022-08-19T03:24:18.431Z,100250.19
2022-08-19T03:26:48.975Z,100255.25
2022-08-19T03:29:30.885Z,100256.75
2022-08-19T03:32:01.867Z,100256.75
2022-08-19T03:34:32.684Z,100264.72
2022-08-19T03:37:05.461Z,100260.44
2022-08-19T03:39:33.525Z,100245.78
2022-08-19T03:42:38.928Z,100262.41
2022-08-19T03:44:53.725Z,100266.88
2022-08-19T03:47:21.850Z,100265.06
2022-08-19T03:49:49.954Z,100261.31
2022-08-19T03:52:18.048Z,100261.59
2022-08-19T03:54:46.126Z,100268.53
2022-08-19T03:57:14.102Z,100274.81
2022-08-19T03:59:42.202Z,100274.47
2022-08-19T04:02:13.883Z,100275.31
2022-08-19T04:04:44.645Z,100273.16
2022-08-19T04:07:16.876Z,100270.66
2022-08-19T04:09:45.289Z,100282.19
2022-08-19T04:12:13.581Z,100279.22
2022-08-19T04:14:42.383Z,100281.69
2022-08-19T04:17:14.014Z,100287.94
2022-08-19T04:19:44.026Z,100288.22
2022-08-19T04:22:13.395Z,100292.84
2022-08-19T04:24:41.530Z,100300.59
2022-08-19T04:27:09.825Z,100298.88
2022-08-19T04:29:40.556Z,100301.97
2022-08-19T04:32:09.949Z,100295.91
2022-08-19T04:35:01.118Z,100294.38
2022-08-19T04:37:35.027Z,100294.75
2022-08-19T04:40:23.253Z,100304.19
2022-08-19T04:42:51.285Z,100305.16
2022-08-19T04:45:19.434Z,100309.66
2022-08-19T04:47:58.275Z,100294.88
2022-08-19T04:50:28.817Z,100293.25
2022-08-19T04:52:57.602Z,100291.22
2022-08-19T04:55:27.619Z,100287.22
2022-08-19T04:57:56.246Z,100291.03
2022-08-19T05:00:24.285Z,100295.91
2022-08-19T05:02:52.729Z,100284.69
2022-08-19T05:05:20.905Z,100296.72
2022-08-19T05:07:50.461Z,100298.28
2022-08-19T05:10:18.597Z,100294.16
2022-08-19T05:12:46.785Z,100302.09
2022-08-19T05:15:15.122Z,100294.41
2022-08-19T05:18:03.506Z,100296.59
2022-08-19T05:20:48.699Z,100293.03
2022-08-19T05:23:21.886Z,100298.28
2022-08-19T05:25:51.256Z,100290.16
2022-08-19T05:28:19.630Z,100289.56
2022-08-19T05:30:49.166Z,100281.00
2022-08-19T05:33:17.240Z,100288.44
2022-08-19T05:35:45.426Z,100294.59
2022-08-19T05:38:13.763Z,100290.91
2022-08-19T05:40:43.868Z,100300.34
2022-08-19T05:43:11.884Z,100296.88
2022-08-19T05:45:43.657Z,100301.34
2022-08-19T05:48:13.610Z,100306.63
2022-08-19T05:50:43.591Z,100307.44
2022-08-19T05:53:11.641Z,100311.28
2022-08-19T05:55:40.872Z,100309.13
2022-08-19T05:58:10.433Z,100309.28
2022-08-19T06:00:39.238Z,100311.88
2022-08-19T06:03:11.842Z,100305.03
2022-08-19T06:05:46.259Z,100304.94
2022-08-19T06:08:20.271Z,100309.19
2022-08-19T06:10:48.361Z,100302.09
2022-08-19T06:13:18.494Z,100308.63
2022-08-19T06:15:47.472Z,100303.94
2022-08-19T06:18:16.196Z,100308.34
2022-08-19T06:20:56.358Z,100298.13
2022-08-19T06:23:24.586Z,100293.19
2022-08-19T06:25:52.631Z,100297.47
2022-08-19T06:28:22.450Z,100292.25
2022-08-19T06:30:51.146Z,100298.41
2022-08-19T06:33:19.179Z,100298.72
2022-08-19T06:35:47.209Z,100303.53
2022-08-19T06:38:15.285Z,100294.13
2022-08-19T06:43:12.284Z,100293.00
2022-08-19T06:45:43.898Z,100289.41
2022-08-19T06:48:11.929Z,100288.78
2022-08-19T06:50:41.011Z,100284.22
2022-08-19T06:53:09.526Z,100289.72
2022-08-19T06:55:38.675Z,100295.56
2022-08-19T06:58:07.228Z,100273.63
2022-08-19T07:00:35.551Z,100290.91
2022-08-19T07:03:08.471Z,100289.97
2022-08-19T07:05:45.880Z,100293.59
2022-08-19T07:08:14.908Z,100291.44
2022-08-19T07:10:45.942Z,100288.78
2022-08-19T07:13:14.165Z,100295.31
2022-08-19T07:15:42.286Z,100294.78
2022-08-19T07:18:15.397Z,100286.72
2022-08-19T07:20:44.281Z,100287.22
2022-08-19T07:23:16.029Z,100302.59
2022-08-19T07:25:52.751Z,100288.59
2022-08-19T07:28:23.997Z,100289.31
2022-08-19T07:30:53.145Z,100292.47
2022-08-19T07:33:23.287Z,100301.56
2022-08-19T07:35:51.455Z,100300.13
2022-08-19T07:38:19.773Z,100308.56
2022-08-19T07:40:48.076Z,100299.72
2022-08-19T07:43:18.626Z,100297.00
2022-08-19T07:45:48.234Z,100290.81
2022-08-19T07:48:16.694Z,100300.47
2022-08-19T07:50:46.467Z,100309.03
2022-08-19T07:53:14.696Z,100301.47
2022-08-19T07:55:44.063Z,100303.28
2022-08-19T07:58:14.307Z,100307.78
2022-08-19T08:00:43.306Z,100303.09
2022-08-19T08:03:12.245Z,100298.97
2022-08-19T08:05:57.997Z,100298.72
2022-08-19T08:08:48.343Z,100295.91
2022-08-19T08:11:19.140Z,100291.16
2022-08-19T08:14:01.432Z,100295.59
2022-08-19T08:16:39.520Z,100286.28
2022-08-19T08:19:20.266Z,100290.97
2022-08-19T08:21:52.826Z,100287.66
2022-08-19T08:24:22.406Z,100291.41
2022-08-19T08:26:57.638Z,100268.13
2022-08-19T08:29:26.930Z,100285.25
2022-08-19T08:32:03.760Z,100276.56
2022-08-19T08:34:42.395Z,100282.31
2022-08-19T08:37:10.549Z,100288.03
2022-08-19T08:39:40.121Z,100286.06
2022-08-19T08:42:16.851Z,100283.00
2022-08-19T08:47:33.622Z,100273.78
2022-08-19T08:50:07.139Z,100278.59
2022-08-19T08:52:39.438Z,100280.03
2022-08-19T08:55:13.001Z,100272.50
2022-08-19T08:57:46.626Z,100281.78
2022-08-19T09:00:25.208Z,100282.88
2022-08-19T09:02:53.340Z,100282.16
2022-08-19T09:05:26.069Z,100283.84
2022-08-19T09:08:02.174Z,100289.16
2022-08-19T09:10:44.349Z,100289.75
2022-08-19T09:13:24.339Z,100266.06
2022-08-19T09:15:59.297Z,100282.00
2022-08-19T09:18:29.684Z,100284.09
2022-08-19T09:20:58.807Z,100279.00
2022-08-19T09:23:27.239Z,100283.53
2022-08-19T09:25:57.202Z,100284.28
2022-08-19T09:28:27.462Z,100279.50
2022-08-19T09:30:55.671Z,100284.06
2022-08-19T09:33:24.297Z,100270.03
2022-08-19T09:35:53.765Z,100278.16
2022-08-19T09:38:22.402Z,100264.56
2022-08-19T09:40:51.342Z,100278.88
2022-08-19T09:43:33.169Z,100267.66
2022-08-19T09:46:02.419Z,100270.88
2022-08-19T09:48:30.783Z,100273.56
2022-08-19T09:51:05.850Z,100268.00
2022-08-19T09:53:34.289Z,100262.03
2022-08-19T09:56:04.202Z,100266.16
2022-08-19T09:58:34.707Z,100254.69
2022-08-19T10:01:04.403Z,100258.81
2022-08-19T10:03:34.673Z,100259.28
2022-08-19T10:06:05.497Z,100254.44
2022-08-19T10:08:50.402Z,100254.22
2022-08-19T10:11:28.139Z,100258.97
2022-08-19T10:14:08.051Z,100249.41
2022-08-19T10:16:40.326Z,100248.72
2022-08-19T10:19:08.524Z,100238.50
2022-08-19T10:21:36.759Z,100236.56
2022-08-19T10:24:07.288Z,100231.66
2022-08-19T10:26:43.062Z,100233.94
2022-08-19T10:29:12.990Z,100231.97
2022-08-19T10:32:02.829Z,100228.13
2022-08-19T10:34:32.661Z,100235.84
2022-08-19T10:37:02.278Z,100236.69
2022-08-19T10:39:32.595Z,100243.00
2022-08-19T10:42:02.549Z,100238.72
2022-08-19T10:44:32.738Z,100226.69
2022-08-19T10:47:01.635Z,100227.47
2022-08-19T10:49:30.058Z,100230.84
2022-08-19T10:52:18.637Z,100231.50
2022-08-19T10:55:08.573Z,100230.31
2022-08-19T11:00:27.091Z,100224.03
2022-08-19T11:02:55.292Z,100223.00
2022-08-19T11:05:24.304Z,100212.38
2022-08-19T11:07:53.510Z,100218.75
2022-08-19T11:10:22.446Z,100217.47
2022-08-19T11:12:54.105Z,100221.56
2022-08-19T11:15:22.390Z,100219.88
2022-08-19T11:17:55.353Z,100222.81
2022-08-19T11:20:24.747Z,100212.72
2022-08-19T11:22:55.317Z,100210.94
2022-08-19T11:25:23.588Z,100206.03
2022-08-19T11:27:53.513Z,100209.81
2022-08-19T11:30:22.060Z,100199.38
2022-08-19T11:32:51.582Z,100194.13
2022-08-19T11:35:21.118Z,100196.94
2022-08-19T11:37:49.289Z,100189.91
2022-08-19T11:40:18.368Z,100189.13
2022-08-19T11:42:58.215Z,100188.88
2022-08-19T11:45:27.150Z,100186.69
2022-08-19T11:47:57.125Z,100184.97
2022-08-19T11:50:26.061Z,100189.84
2022-08-19T11:52:56.734Z,100178.00
2022-08-19T11:55:25.610Z,100188.78
2022-08-19T11:57:53.853Z,100185.00
2022-08-19T12:00:22.749Z,100181.75
2022-08-19T12:02:51.200Z,100178.53
2022-08-19T12:05:20.922Z,100188.78
2022-08-19T12:07:49.158Z,100176.91
2022-08-19T12:10:18.461Z,100165.06
2022-08-19T12:12:55.810Z,100161.56
2022-08-19T12:15:28.912Z,100166.34
2022-08-19T12:18:06.770Z,100164.88
2022-08-19T12:20:39.236Z,100166.75
2022-08-19T12:23:10.002Z,100163.19
2022-08-19T12:25:38.810Z,100156.31
2022-08-19T12:28:07.462Z,100159.63
2022-08-19T12:30:35.640Z,100157.28
2022-08-19T12:33:03.805Z,100151.91
2022-08-19T12:35:31.975Z,100149.75
2022-08-19T12:38:03.934Z,100142.94
2022-08-19T12:40:32.094Z,100146.28
2022-08-19T12:43:00.331Z,100148.69
2022-08-19T12:45:28.868Z,100151.06
2022-08-19T12:47:57.287Z,100151.03
2022-08-19T12:50:25.959Z,100151.56
2022-08-19T12:52:54.437Z,100152.59
2022-08-19T12:55:24.411Z,100157.50
2022-08-19T12:57:52.739Z,100138.09
2022-08-19T13:00:23.185Z,100143.69
2022-08-19T13:02:53.136Z,100139.31
2022-08-19T13:05:25.170Z,100138.81
2022-08-19T13:07:57.001Z,100146.19
2022-08-19T13:10:29.076Z,100133.25
2022-08-19T13:12:57.983Z,100130.78
2022-08-19T13:15:26.470Z,100134.56
2022-08-19T13:17:57.149Z,100131.06
2022-08-19T13:20:25.607Z,100138.00
2022-08-19T13:22:54.467Z,100129.91
2022-08-19T13:25:23.632Z,100131.56
2022-08-19T13:27:53.598Z,100125.91
2022-08-19T13:30:40.421Z,100124.31
2022-08-19T13:33:16.575Z,100120.81
2022-08-19T13:35:48.072Z,100120.03
2022-08-19T13:38:18.094Z,100112.28
2022-08-19T13:40:47.453Z,100122.28
2022-08-19T13:43:23.165Z,100121.16
2022-08-19T13:45:57.372Z,100118.81
2022-08-19T13:48:27.653Z,100118.97
2022-08-19T13:50:56.853Z,100115.59
2022-08-19T13:53:25.765Z,100104.00
2022-08-19T13:55:54.785Z,100105.06
2022-08-19T13:58:25.105Z,100102.78
2022-08-19T14:00:53.707Z,100103.81
2022-08-19T14:03:22.586Z,100107.66
2022-08-19T14:05:50.612Z,100105.81
2022-08-19T14:08:19.717Z,100104.59
2022-08-19T14:10:49.623Z,100099.03
2022-08-19T14:13:19.823Z,100102.00
2022-08-19T14:15:49.529Z,100095.56
2022-08-19T14:18:18.994Z,100107.56
2022-08-19T14:20:47.430Z,100104.56
2022-08-19T14:23:15.795Z,100034.28
2022-08-19T14:25:44.296Z,100097.94
2022-08-19T14:28:12.600Z,100099.34
2022-08-19T14:30:40.744Z,100102.94
2022-08-19T14:33:10.620Z,100104.63
2022-08-19T14:35:39.184Z,100081.56
2022-08-19T14:38:09.254Z,100091.91
2022-08-19T14:40:37.659Z,100093.91
2022-08-19T14:43:07.282Z,100099.91
2022-08-19T14:45:38.287Z,100100.81
2022-08-19T14:48:07.190Z,100099.00
2022-08-19T14:50:38.703Z,100100.00
2022-08-19T14:53:12.645Z,100089.25
2022-08-19T14:55:44.627Z,100095.53
2022-08-19T14:58:28.805Z,100101.72
2022-08-19T15:00:59.965Z,100105.22
2022-08-19T15:03:28.607Z,100096.09
2022-08-19T15:05:59.034Z,100089.97
2022-08-19T15:08:27.443Z,100095.44
2022-08-19T15:10:55.626Z,100089.25
2022-08-19T15:13:25.734Z,100086.97
2022-08-19T15:15:53.839Z,100072.06
2022-08-19T15:18:22.852Z,100085.88
2022-08-19T15:20:52.070Z,100082.28
2022-08-19T15:23:22.805Z,100082.69
2022-08-19T15:25:54.465Z,100073.84
2022-08-19T15:28:22.820Z,100087.56
2022-08-19T15:30:52.070Z,100073.25
2022-08-19T15:33:21.453Z,100080.75
2022-08-19T15:35:51.818Z,100070.34
2022-08-19T15:38:23.888Z,100074.56
2022-08-19T15:40:52.348Z,100065.91
2022-08-19T15:43:22.557Z,100064.75
2022-08-19T15:45:50.763Z,100060.59
2022-08-19T15:48:19.010Z,100073.44
2022-08-19T15:50:47.517Z,100066.06
2022-08-19T15:53:15.620Z,100063.75
2022-08-19T15:55:48.684Z,100066.84
2022-08-19T15:58:34.944Z,100067.03
2022-08-19T16:01:24.093Z,100067.94
2022-08-19T16:04:14.679Z,100067.94
2022-08-19T16:06:46.632Z,100063.88
2022-08-19T16:09:16.173Z,100067.25
2022-08-19T16:11:56.563Z,100064.50
2022-08-19T16:14:26.461Z,100066.94
2022-08-19T16:16:57.015Z,100056.09
2022-08-19T16:19:26.065Z,100066.19
2022-08-19T16:21:56.479Z,100066.69
2022-08-19T16:24:27.749Z,100065.03
2022-08-19T16:26:58.549Z,100054.91
2022-08-19T16:29:33.808Z,100059.22
2022-08-19T16:32:04.132Z,100048.88
2022-08-19T16:34:33.627Z,100058.88
2022-08-19T16:37:02.223Z,100057.28
2022-08-19T16:39:30.454Z,100057.28
2022-08-19T16:42:01.543Z,100055.63
2022-08-19T16:44:30.822Z,100056.81
2022-08-19T16:46:59.887Z,100057.81
2022-08-19T16:49:52.907Z,100066.94
2022-08-19T16:52:17.007Z,100053.09
2022-08-19T16:54:45.451Z,100065.53
2022-08-19T16:57:15.220Z,100063.31
2022-08-19T16:59:49.243Z,100072.06
2022-08-19T17:02:18.360Z,100071.78
2022-08-19T17:04:57.113Z,100076.41
2022-08-19T17:07:26.678Z,100072.06
2022-08-19T17:09:55.258Z,100068.22
2022-08-19T17:12:31.897Z,100064.31
2022-08-19T17:15:01.366Z,100070.41
2022-08-19T17:17:32.293Z,100071.47
2022-08-19T17:20:01.377Z,100073.03
2022-08-19T17:22:29.934Z,100073.91
2022-08-19T17:24:58.874Z,100070.53
2022-08-19T17:27:32.383Z,100076.69
2022-08-19T17:30:02.737Z,100086.28
2022-08-19T17:32:33.402Z,100086.56
2022-08-19T17:35:01.421Z,100093.97
2022-08-19T17:37:29.779Z,100090.84
2022-08-19T17:39:57.871Z,100094.41
2022-08-19T17:42:26.525Z,100102.47
2022-08-19T17:44:59.661Z,100100.06
2022-08-19T17:47:28.554Z,100110.44
2022-08-19T17:49:56.855Z,100121.16
2022-08-19T17:52:25.173Z,100118.31
2022-08-19T17:54:53.400Z,100123.28
2022-08-19T17:57:21.958Z,100126.97
2022-08-19T17:59:50.516Z,100130.31
2022-08-19T18:02:21.440Z,100138.97
2022-08-19T18:04:50.139Z,100141.91
2022-08-19T18:07:19.609Z,100147.47
2022-08-19T18:09:51.659Z,100150.56
2022-08-19T18:12:23.597Z,100147.78
2022-08-19T18:14:52.094Z,100147.78
2022-08-19T18:17:23.427Z,100144.06
2022-08-19T18:19:51.639Z,100142.88
2022-08-19T18:22:26.812Z,100151.56
2022-08-19T18:24:55.805Z,100153.03
2022-08-19T18:27:23.886Z,100152.41
2022-08-19T18:29:51.969Z,100160.44
2022-08-19T18:32:23.892Z,100155.72
2022-08-19T18:34:52.635Z,100158.59
2022-08-19T18:37:21.553Z,100149.22
2022-08-19T18:40:07.110Z,100165.28
2022-08-19T18:42:52.330Z,100152.56
2022-08-19T18:45:37.862Z,100157.97
2022-08-19T18:48:27.716Z,100159.81
2022-08-19T18:50:58.674Z,100164.34
2022-08-19T18:53:29.162Z,100168.84
2022-08-19T18:55:57.804Z,100179.72
2022-08-19T18:58:34.123Z,100170.31
2022-08-19T19:01:10.846Z,100169.94
2022-08-19T19:03:45.369Z,100171.19
2022-08-19T19:06:15.084Z,100168.75
2022-08-19T19:08:43.457Z,100176.09
2022-08-19T19:11:11.513Z,100172.84
2022-08-19T19:13:41.115Z,100182.69
2022-08-19T19:16:11.670Z,100170.78
2022-08-19T19:18:41.085Z,100178.16
2022-08-19T19:21:10.271Z,100171.59
2022-08-19T19:23:40.801Z,100185.53
2022-08-19T19:26:10.679Z,100183.50
2022-08-19T19:28:46.250Z,100184.13
2022-08-19T19:31:16.205Z,100182.66
2022-08-19T19:33:46.845Z,100172.81
2022-08-19T19:36:15.519Z,100181.41
2022-08-19T19:38:48.588Z,100182.03
2022-08-19T19:41:19.032Z,100178.75
2022-08-19T19:43:47.022Z,100192.06
2022-08-19T19:46:15.653Z,100186.13
2022-08-19T19:48:45.162Z,100195.78
2022-08-19T19:51:14.243Z,100197.81
2022-08-19T19:53:42.920Z,100196.56
2022-08-19T19:56:11.092Z,100198.84
2022-08-19T19:58:39.782Z,100202.09
2022-08-19T20:01:12.523Z,100196.38
2022-08-19T20:03:47.184Z,100204.56
2022-08-19T20:06:17.517Z,100205.78
2022-08-19T20:09:04.524Z,100202.09
2022-08-19T20:11:35.547Z,100206.38
2022-08-19T20:14:06.945Z,100211.13
2022-08-19T20:16:35.047Z,100206.81
2022-08-19T20:19:04.418Z,100211.50
2022-08-19T20:21:33.313Z,100206.97
2022-08-19T20:24:09.605Z,100206.78
2022-08-19T20:26:38.869Z,100215.78
2022-08-19T20:29:13.889Z,100211.47
2022-08-19T20:31:58.031Z,100212.91
2022-08-19T20:34:29.010Z,100205.72
2022-08-19T20:36:57.191Z,100205.72
2022-08-19T20:39:25.279Z,100210.41
2022-08-19T20:41:53.735Z,100210.41
2022-08-19T20:44:21.779Z,100212.41
2022-08-19T20:46:55.601Z,100202.59
2022-08-19T20:49:27.207Z,100204.63
2022-08-19T20:51:58.581Z,100197.84
2022-08-19T20:54:27.225Z,100204.81
2022-08-19T20:56:55.330Z,100200.09
2022-08-19T20:59:24.486Z,100202.75
2022-08-19T21:01:52.863Z,100206.25
2022-08-19T21:04:22.483Z,100204.56
2022-08-19T21:06:51.096Z,100209.28
2022-08-19T21:09:20.471Z,100215.63
2022-08-19T21:11:49.223Z,100204.56
2022-08-19T21:14:19.123Z,100208.66
2022-08-19T21:16:47.345Z,100203.28
2022-08-19T21:19:15.389Z,100204.34
2022-08-19T21:21:43.472Z,100210.00
2022-08-19T21:24:11.703Z,100202.00
2022-08-19T21:26:41.790Z,100201.59
2022-08-19T21:29:09.846Z,100193.38
2022-08-19T21:31:37.829Z,100202.81
2022-08-19T21:34:06.081Z,100200.78
2022-08-19T21:36:34.638Z,100196.28
2022-08-19T21:39:02.758Z,100201.22
2022-08-19T21:41:30.820Z,100205.75
2022-08-19T21:44:00.286Z,100199.97
2022-08-19T21:46:28.525Z,100205.72
2022-08-19T21:48:56.553Z,100195.09
2022-08-19T21:51:24.579Z,100192.41
2022-08-19T21:53:53.583Z,100195.03
2022-08-19T21:56:21.880Z,100194.84
2022-08-19T21:58:50.055Z,100198.31
2022-08-19T22:01:19.496Z,100188.88
2022-08-19T22:03:47.630Z,100180.72
2022-08-19T22:06:16.456Z,100186.22
2022-08-19T22:08:45.006Z,100186.03
2022-08-19T22:11:13.297Z,100183.56
2022-08-19T22:13:41.757Z,100185.97
2022-08-19T22:16:11.169Z,100184.53
2022-08-19T22:18:40.920Z,100174.31
2022-08-19T22:21:11.899Z,100181.66
2022-08-19T22:23:41.580Z,100175.13
2022-08-19T22:26:10.354Z,100187.41
2022-08-19T22:28:38.826Z,100188.63
2022-08-19T22:31:08.038Z,100189.44
2022-08-19T22:33:37.028Z,100184.31
2022-08-19T22:36:08.656Z,100185.56
2022-08-19T22:38:37.452Z,100181.84
2022-08-19T22:41:07.607Z,100182.00
2022-08-19T22:43:37.749Z,100136.69
2022-08-19T22:46:06.555Z,100181.34
2022-08-19T22:48:45.802Z,100171.91
2022-08-19T22:51:33.559Z,100173.91
2022-08-19T22:54:02.550Z,100173.69
2022-08-19T22:56:31.317Z,100170.97
2022-08-19T22:58:59.919Z,100173.81
2022-08-19T23:01:30.566Z,100172.78
2022-08-19T23:04:00.332Z,100167.25
2022-08-19T23:06:35.667Z,100167.00
2022-08-19T23:09:06.822Z,100165.13
2022-08-19T23:11:41.413Z,100157.72
2022-08-19T23:14:12.727Z,100154.84
2022-08-19T23:16:42.008Z,100155.88
2022-08-19T23:19:11.176Z,100149.28
2022-08-19T23:21:41.443Z,100155.59
2022-08-19T23:24:10.679Z,100156.63
2022-08-19T23:26:39.038Z,100151.91
2022-08-19T23:29:24.639Z,100144.91
2022-08-19T23:31:52.734Z,100154.06
2022-08-19T23:34:21.590Z,100151.81
2022-08-19T23:36:50.995Z,100149.16
2022-08-19T23:39:19.489Z,100137.09
2022-08-19T23:41:47.677Z,100135.19
2022-08-19T23:44:15.652Z,100140.94
2022-08-19T23:46:54.493Z,100142.09
2022-08-19T23:49:22.832Z,100120.09
2022-08-19T23:51:52.282Z,100128.97
2022-08-19T23:54:20.326Z,100129.91
2022-08-19T23:56:48.333Z,100129.34
2022-08-19T23:59:16.363Z,100128.13
